Time;durP1;ratioP1;P1;durP2;ratioP2;P2;SDS_P1;SDS_P2;PMS_P1;PMS_P2;Temp;Humidity;BMP_temperature;BMP_pressure;BME280_temperature;BME280_humidity;BME280_pressure;Samples;Min_cycle;Max_cycle;Signal;HPM_P1;HPM_P2
2021/10/24 00:01:15;;;;;;;11.65;3.20;;;;;;;5.70;66.77;98448.13;5029547;28;20048;-73
2021/10/24 00:03:41;;;;;;;9.07;3.10;;;;;;;5.72;66.97;98459.53;5056056;28;20044;-71
2021/10/24 00:06:07;;;;;;;12.65;4.00;;;;;;;5.70;67.00;98448.13;5041723;28;20124;-71
2021/10/24 00:08:33;;;;;;;13.77;2.92;;;;;;;5.78;66.65;98461.94;5030604;28;20132;-72
2021/10/24 00:10:59;;;;;;;9.77;3.17;;;;;;;5.62;67.25;98447.59;5047395;28;20155;-73
2021/10/24 00:13:28;;;;;;;12.05;3.45;;;;;;;5.68;67.17;98453.81;5049453;28;20044;-72
2021/10/24 00:15:55;;;;;;;10.88;3.40;;;;;;;5.73;67.07;98456.53;5052752;28;20067;-73
2021/10/24 00:18:21;;;;;;;13.02;3.35;;;;;;;5.62;66.96;98447.59;5058923;28;20049;-72
2021/10/24 00:20:47;;;;;;;11.50;3.40;;;;;;;5.64;67.24;98453.56;5022887;28;20051;-73
2021/10/24 00:23:14;;;;;;;12.88;3.60;;;;;;;5.78;66.98;98458.41;5047352;28;20055;-72
2021/10/24 00:25:40;;;;;;;12.30;3.92;;;;;;;5.73;67.13;98456.53;5044320;28;20057;-72
2021/10/24 00:28:06;;;;;;;11.15;3.92;;;;;;;5.75;67.10;98457.06;5040507;28;20088;-72
2021/10/24 00:30:35;;;;;;;8.75;3.40;;;;;;;5.67;67.36;98457.63;5013242;28;20076;-72
2021/10/24 00:33:02;;;;;;;;;;;;;;;5.75;67.51;98457.06;5041256;28;20076;-72
2021/10/24 00:35:27;;;;;;;12.90;3.53;;;;;;;5.64;67.42;98461.69;5045219;28;20448;-72
2021/10/24 00:37:53;;;;;;;14.40;3.55;;;;;;;5.72;67.41;98454.09;5042880;28;20059;-72
2021/10/24 00:40:19;;;;;;;13.00;3.63;;;;;;;5.71;67.55;98466.03;5042969;28;20041;-73
2021/10/24 00:42:48;;;;;;;15.88;4.05;;;;;;;5.65;67.68;98467.94;5040532;28;20041;-72
2021/10/24 00:45:14;;;;;;;16.08;4.07;;;;;;;5.57;68.03;98463.06;5035024;28;20136;-73
2021/10/24 00:47:41;;;;;;;10.77;3.60;;;;;;;5.58;68.31;98472.81;5022362;28;20071;-73
2021/10/24 00:50:08;;;;;;;14.07;4.68;;;;;;;5.58;68.45;98470.13;5047081;28;20095;-72
2021/10/24 00:52:34;;;;;;;13.05;3.90;;;;;;;5.61;68.37;98472.28;5056073;28;20049;-73
2021/10/24 00:55:00;;;;;;;10.02;3.72;;;;;;;5.68;68.20;98472.81;5065724;28;20067;-73
2021/10/24 00:57:27;;;;;;;10.02;3.80;;;;;;;5.53;68.69;98466.34;5055677;28;20044;-73
2021/10/24 00:59:53;;;;;;;11.50;4.10;;;;;;;5.65;68.31;98465.22;5055504;28;20421;-73
2021/10/24 01:02:20;;;;;;;10.52;3.70;;;;;;;5.62;68.59;98479.31;5048936;28;20048;-73
2021/10/24 01:04:47;;;;;;;12.90;3.80;;;;;;;5.67;68.37;98465.75;5027567;28;20075;-72
2021/10/24 01:07:17;;;;;;;10.10;3.88;;;;;;;5.72;68.35;98459.53;5029489;28;20044;-73
2021/10/24 01:09:45;;;;;;;10.82;3.97;;;;;;;5.59;68.89;98472.56;5033478;28;20115;-73
2021/10/24 01:12:11;;;;;;;15.23;3.85;;;;;;;5.55;69.04;98479.63;5044702;28;20051;-72
2021/10/24 01:14:37;;;;;;;12.43;3.88;;;;;;;5.61;68.96;98469.56;5032838;28;20084;-73
2021/10/24 01:17:03;;;;;;;12.48;4.03;;;;;;;5.58;69.13;98475.53;5059992;28;20041;-73
2021/10/24 01:19:29;;;;;;;10.90;3.92;;;;;;;5.68;68.89;98470.09;5056683;28;20048;-72
2021/10/24 01:21:56;;;;;;;17.27;4.28;;;;;;;5.50;69.51;98472.31;5053983;28;20055;-74
2021/10/24 01:24:22;;;;;;;12.50;4.22;;;;;;;5.44;69.78;98476.09;5055674;28;20060;-73
2021/10/24 01:26:49;;;;;;;14.77;4.63;;;;;;;5.51;69.66;98475.81;5053726;28;20170;-73
2021/10/24 01:29:15;;;;;;;11.60;4.20;;;;;;;5.44;69.95;98484.22;5061333;28;20554;-73
2021/10/24 01:31:42;;;;;;;10.25;3.88;;;;;;;5.43;69.97;98460.91;5043161;28;20051;-73
2021/10/24 01:34:08;;;;;;;15.43;4.78;;;;;;;5.63;69.43;98475.53;5046504;28;20703;-71
2021/10/24 01:36:39;;;;;;;14.55;4.35;;;;;;;5.62;69.42;98476.59;5046057;28;20055;-72
2021/10/24 01:39:07;;;;;;;14.82;3.92;;;;;;;5.51;69.72;98475.81;5031896;28;20048;-73
2021/10/24 01:41:33;;;;;;;12.48;3.60;;;;;;;5.46;69.68;98468.50;5046998;28;20049;-73
2021/10/24 01:44:00;;;;;;;10.88;3.80;;;;;;;5.57;69.64;98479.34;5032250;28;20069;-72
2021/10/24 01:46:27;;;;;;;13.20;4.45;;;;;;;5.63;69.24;98473.63;5041990;28;20166;-72
2021/10/24 01:48:53;;;;;;;12.68;4.57;;;;;;;5.49;69.40;98467.97;5051201;28;20049;-73
2021/10/24 01:51:20;;;;;;;16.83;4.90;;;;;;;5.65;69.21;98476.88;5056896;28;20047;-73
2021/10/24 01:53:48;;;;;;;17.40;4.57;;;;;;;5.62;69.34;98482.84;5028960;28;20504;-73
2021/10/24 01:56:16;;;;;;;12.77;4.93;;;;;;;5.59;69.29;98480.69;5055445;28;20086;-73
2021/10/24 01:58:42;;;;;;;13.38;4.22;;;;;;;5.63;69.42;98486.38;5052454;28;20130;-72
2021/10/24 02:01:10;;;;;;;13.27;4.57;;;;;;;5.70;68.98;98488.78;5054833;28;20566;-73
2021/10/24 02:04:15;;;;;;;14.45;4.63;;;;;;;5.70;68.98;98478.78;5046662;28;20049;-73
2021/10/24 02:07:01;;;;;;;14.32;3.95;;;;;;;5.63;69.23;98491.81;5060316;28;20087;-73
2021/10/24 02:09:27;;;;;;;13.48;4.28;;;;;;;5.67;68.87;98493.69;5040633;28;20052;-73
2021/10/24 02:11:55;;;;;;;14.07;5.60;;;;;;;5.79;68.56;98496.13;5022004;28;20578;-73
2021/10/24 02:14:23;;;;;;;18.73;4.85;;;;;;;5.65;68.74;98489.63;5035642;28;20040;-73
2021/10/24 02:16:49;;;;;;;13.93;4.70;;;;;;;5.72;68.70;98483.94;5064236;28;20082;-73
2021/10/24 02:19:16;;;;;;;14.18;6.13;;;;;;;5.82;68.51;98486.59;5054513;28;20045;-72
2021/10/24 02:21:42;;;;;;;17.23;5.05;;;;;;;5.90;68.20;98490.66;5056908;28;20123;-73
2021/10/24 02:24:08;;;;;;;11.90;4.18;;;;;;;6.01;67.63;98486.00;5053567;28;20048;-73
2021/10/24 02:26:34;;;;;;;16.45;4.88;;;;;;;6.00;67.86;98493.34;5031920;28;20047;-73
2021/10/24 02:29:02;;;;;;;15.82;5.57;;;;;;;5.95;68.02;98490.66;5052893;28;20136;-72
2021/10/24 02:31:30;;;;;;;13.88;4.45;;;;;;;5.94;67.87;98486.31;5054120;28;20094;-73
2021/10/24 02:34:08;;;;;;;12.52;4.43;;;;;;;6.00;67.74;98493.34;5057037;28;20409;-73
2021/10/24 02:36:49;;;;;;;14.95;4.35;;;;;;;6.12;67.38;98484.91;5024376;28;20048;-74
2021/10/24 02:39:15;;;;;;;15.93;4.13;;;;;;;6.13;67.63;98491.97;5011707;28;20091;-74
2021/10/24 02:41:41;;;;;;;12.02;3.95;;;;;;;6.07;67.73;98493.06;5032556;28;20038;-73
2021/10/24 02:44:09;;;;;;;12.85;4.10;;;;;;;6.08;67.64;98494.69;5022739;28;20047;-73
2021/10/24 02:46:45;;;;;;;12.57;4.47;;;;;;;6.05;67.50;98496.06;5066114;28;20048;-73
2021/10/24 02:49:12;;;;;;;13.05;4.47;;;;;;;6.11;67.34;98494.13;5037440;28;20094;-73
2021/10/24 02:51:54;;;;;;;24.83;5.13;;;;;;;6.22;66.98;98501.16;5058140;28;20082;-73
2021/10/24 02:54:21;;;;;;;16.90;4.95;;;;;;;6.23;67.02;98499.25;5039380;28;20089;-73
2021/10/24 02:56:47;;;;;;;14.35;4.85;;;;;;;6.21;67.07;98501.44;5060916;28;20497;-73
2021/10/24 02:59:17;;;;;;;18.13;4.18;;;;;;;6.25;66.53;98488.94;5053251;28;20045;-73
2021/10/24 03:01:43;;;;;;;;;;;;;;;6.31;66.84;98495.13;5059460;28;20049;-72
2021/10/24 03:04:11;;;;;;;17.40;5.88;;;;;;;6.34;66.58;98495.41;5044177;28;20396;-73
2021/10/24 03:06:39;;;;;;;17.30;6.00;;;;;;;6.39;66.36;98491.84;5065420;28;20499;-73
2021/10/24 03:09:06;;;;;;;17.30;4.88;;;;;;;6.42;66.42;98495.94;5039672;28;20048;-72
2021/10/24 03:11:34;;;;;;;26.77;7.70;;;;;;;6.44;66.11;98497.25;5058837;28;20041;-73
2021/10/24 03:14:00;;;;;;;45.65;14.23;;;;;;;6.42;66.21;98496.72;5059381;28;20122;-71
2021/10/24 03:16:28;;;;;;;34.83;10.13;;;;;;;6.47;66.05;98496.69;5034450;28;20398;-73
2021/10/24 03:18:54;;;;;;;20.95;6.25;;;;;;;6.45;66.10;98500.78;5057750;28;20052;-72
2021/10/24 03:21:20;;;;;;;11.75;3.53;;;;;;;6.33;65.93;98466.63;5061967;28;20509;-72
2021/10/24 03:23:51;;;;;;;11.80;3.28;;;;;;;6.42;65.76;98495.94;5054942;28;20370;-72
2021/10/24 03:26:17;;;;;;;13.52;4.07;;;;;;;6.42;65.56;98504.88;5066962;28;20053;-73
2021/10/24 03:28:43;;;;;;;7.80;2.60;;;;;;;6.45;65.33;98504.31;5037458;28;20060;-72
2021/10/24 03:31:09;;;;;;;7.50;2.53;;;;;;;6.50;65.33;98506.19;5063840;28;20044;-73
2021/10/24 03:33:37;;;;;;;11.75;2.90;;;;;;;6.45;65.25;98506.22;5055101;28;20144;-73
2021/10/24 03:36:04;;;;;;;10.07;2.70;;;;;;;6.40;65.17;98507.06;5052340;28;20053;-73
2021/10/24 03:38:30;;;;;;;6.10;2.15;;;;;;;6.46;65.06;98505.94;5053211;28;20106;-72
2021/10/24 03:40:58;;;;;;;8.60;2.25;;;;;;;6.54;64.82;98507.25;5054992;28;20057;-72
2021/10/24 03:43:24;;;;;;;11.70;2.20;;;;;;;6.61;64.83;98518.63;5055251;28;20095;-72
2021/10/24 03:45:50;;;;;;;16.05;2.53;;;;;;;6.61;64.64;98521.34;5058241;28;20057;-73
2021/10/24 03:48:16;;;;;;;16.17;4.00;;;;;;;6.66;64.38;98523.22;5058038;28;20131;-73
2021/10/24 03:50:49;;;;;;;10.15;3.10;;;;;;;6.53;64.60;98511.06;5041564;28;20453;-72
2021/10/24 03:53:16;;;;;;;9.88;2.67;;;;;;;6.58;64.45;98521.91;5055699;28;20106;-72
2021/10/24 03:55:43;;;;;;;13.65;3.15;;;;;;;6.59;64.42;98517.28;5056207;28;20048;-73
2021/10/24 03:58:08;;;;;;;9.07;3.38;;;;;;;6.55;64.57;98522.44;5057899;28;20520;-73
2021/10/24 04:00:34;;;;;;;10.57;2.78;;;;;;;6.56;64.33;98515.13;5066613;28;20070;-73
2021/10/24 04:03:07;;;;;;;9.73;1.95;;;;;;;6.56;64.21;98529.53;5055923;28;20041;-72
2021/10/24 04:05:39;;;;;;;8.55;1.88;;;;;;;6.63;64.01;98526.47;5044292;28;20041;-73
2021/10/24 04:08:07;;;;;;;7.38;1.73;;;;;;;6.60;63.91;98529.75;5040000;28;20041;-73
2021/10/24 04:10:34;;;;;;;4.07;1.73;;;;;;;6.49;64.15;98523.56;5040174;28;20045;-73
2021/10/24 04:13:00;;;;;;;8.77;1.88;;;;;;;6.53;63.91;98532.78;5053451;28;20541;-73
2021/10/24 04:15:27;;;;;;;6.47;1.83;;;;;;;6.45;64.48;98531.47;5043761;28;20493;-73
2021/10/24 04:17:54;;;;;;;5.55;1.70;;;;;;;6.48;64.46;98544.50;5062472;28;20045;-73
2021/10/24 04:20:23;;;;;;;4.25;1.50;;;;;;;6.48;64.58;98535.53;5031626;28;20398;-73
2021/10/24 04:22:51;;;;;;;5.47;1.70;;;;;;;6.41;64.58;98524.97;5056182;28;20461;-73
2021/10/24 04:25:20;;;;;;;5.13;1.40;;;;;;;6.44;64.88;98543.41;5041457;28;20498;-73
2021/10/24 04:27:48;;;;;;;5.30;1.40;;;;;;;6.43;64.80;98555.38;5051852;28;20060;-73
2021/10/24 04:30:14;;;;;;;5.47;1.60;;;;;;;6.46;64.64;98554.81;5056320;28;20051;-73
2021/10/24 04:32:43;;;;;;;5.72;1.63;;;;;;;6.44;65.05;98553.47;5060694;28;20048;-73
2021/10/24 04:35:09;;;;;;;7.65;2.10;;;;;;;6.46;64.98;98556.72;5058052;28;20135;-73
2021/10/24 04:37:36;;;;;;;6.05;1.88;;;;;;;6.45;65.08;98566.75;5046696;28;20044;-73
2021/10/24 04:40:04;;;;;;;7.63;2.05;;;;;;;6.46;64.64;98557.53;5056232;28;20536;-73
2021/10/24 04:42:37;;;;;;;11.77;2.50;;;;;;;6.51;64.94;98564.84;5053421;28;20776;-72
2021/10/24 04:45:04;;;;;;;9.13;2.40;;;;;;;6.51;65.01;98556.69;5056649;28;20076;-71
2021/10/24 04:47:31;;;;;;;4.80;1.63;;;;;;;6.42;64.93;98559.19;5053129;28;20041;-73
2021/10/24 04:49:57;;;;;;;4.82;1.60;;;;;;;6.46;64.86;98567.59;5037042;28;20059;-73
2021/10/24 04:52:22;;;;;;;5.00;1.60;;;;;;;6.53;64.77;98582.50;5053882;28;20139;-73
2021/10/24 04:54:49;;;;;;;7.50;1.58;;;;;;;6.56;64.75;98581.13;5041349;28;20084;-73
2021/10/24 04:57:15;;;;;;;4.38;1.45;;;;;;;6.54;64.77;98586.00;5049898;28;20416;-73
2021/10/24 04:59:42;;;;;;;4.45;1.63;;;;;;;6.51;64.59;98573.81;5040331;28;20558;-73
2021/10/24 05:02:08;;;;;;;7.13;1.70;;;;;;;6.64;64.40;98587.88;5052967;28;20550;-72
2021/10/24 05:04:35;;;;;;;7.28;2.08;;;;;;;6.58;64.33;98587.09;5052027;28;20041;-74
2021/10/24 05:07:01;;;;;;;11.50;2.90;;;;;;;6.63;64.01;98588.94;5058398;28;20148;-74
2021/10/24 05:09:27;;;;;;;29.83;7.38;;;;;;;6.65;64.23;98603.91;5041812;28;20126;-73
2021/10/24 05:11:53;;;;;;;34.45;8.85;;;;;;;6.65;64.30;98594.94;5055406;28;20490;-74
2021/10/24 05:14:20;;;;;;;45.03;11.23;;;;;;;6.63;64.39;98599.81;5050522;28;20131;-72
2021/10/24 05:16:48;;;;;;;31.40;7.50;;;;;;;6.63;64.12;98605.25;5063512;28;20070;-73
2021/10/24 05:19:14;;;;;;;14.30;3.55;;;;;;;6.68;64.01;98618.84;5048340;28;20045;-73
2021/10/24 05:21:40;;;;;;;17.17;4.10;;;;;;;6.74;63.70;98617.72;5063164;28;20061;-73
2021/10/24 05:24:06;;;;;;;22.30;5.72;;;;;;;6.77;63.47;98617.16;5054141;28;20557;-72
2021/10/24 05:26:33;;;;;;;28.30;7.13;;;;;;;6.83;63.44;98628.00;5059492;28;20091;-73
2021/10/24 05:29:00;;;;;;;24.42;6.38;;;;;;;6.80;63.09;98613.06;5058783;28;20049;-73
2021/10/24 05:31:26;;;;;;;12.87;3.13;;;;;;;6.64;63.69;98613.13;5042090;28;20131;-73
2021/10/24 05:34:05;;;;;;;6.82;1.80;;;;;;;6.67;63.33;98606.34;5052221;28;20059;-72
2021/10/24 05:36:49;;;;;;;6.18;2.05;;;;;;;6.71;63.17;98617.44;5055112;28;20053;-72
2021/10/24 05:39:15;;;;;;;4.50;1.60;;;;;;;6.68;63.11;98624.25;5038741;28;20140;-73
2021/10/24 05:41:41;;;;;;;5.35;1.70;;;;;;;6.64;63.27;98621.28;5045048;28;20047;-73
2021/10/24 05:44:07;;;;;;;10.10;1.90;;;;;;;6.52;63.16;98618.06;5032963;28;20037;-73
2021/10/24 05:46:34;;;;;;;7.32;1.85;;;;;;;6.65;63.02;98639.19;5061730;28;20041;-73
2021/10/24 05:49:10;;;;;;;4.68;1.50;;;;;;;6.75;62.92;98632.13;5058318;28;20049;-72
2021/10/24 05:51:37;;;;;;;21.38;1.88;;;;;;;6.72;62.74;98638.91;5053403;28;20060;-72
2021/10/24 05:54:08;;;;;;;12.77;1.90;;;;;;;6.70;62.60;98654.69;5056544;28;20357;-73
2021/10/24 05:56:38;;;;;;;12.88;2.47;;;;;;;6.66;62.81;98646.25;5042444;28;20040;-73
2021/10/24 05:59:06;;;;;;;7.05;1.77;;;;;;;6.74;62.54;98663.88;5040495;28;20079;-72
2021/10/24 06:01:40;;;;;;;9.32;2.15;;;;;;;6.75;62.27;98662.81;5038645;28;20056;-70
2021/10/24 06:04:46;;;;;;;5.13;1.60;;;;;;;6.67;62.65;98666.91;5058231;28;20068;-71
2021/10/24 06:07:29;;;;;;;7.85;1.90;;;;;;;6.73;62.47;98675.06;5057779;28;20148;-72
2021/10/24 06:10:00;;;;;;;;;;;;;;;6.76;62.49;98678.00;5034383;28;20409;-71
2021/10/24 06:14:59;;;;;;;6.18;1.60;;;;;;;6.73;62.39;98675.06;5042794;28;20519;-71
2021/10/24 06:17:26;;;;;;;6.25;1.90;;;;;;;6.67;62.41;98677.75;5045266;28;20048;-72
2021/10/24 06:19:53;;;;;;;8.20;1.67;;;;;;;6.78;62.20;98689.41;5044595;28;20056;-72
2021/10/24 06:22:19;;;;;;;5.90;1.83;;;;;;;6.79;61.98;98685.63;5040692;28;20429;-71
2021/10/24 06:24:45;;;;;;;5.88;1.73;;;;;;;6.83;61.76;98693.22;5041405;28;20053;-70
2021/10/24 06:27:19;;;;;;;16.98;1.65;;;;;;;6.79;61.94;98682.09;5009949;28;20041;-70
2021/10/24 06:29:45;;;;;;;8.68;1.90;;;;;;;6.80;61.77;98691.84;5048651;28;20056;-70
2021/10/24 06:32:13;;;;;;;8.60;1.88;;;;;;;6.74;61.92;98684.81;5056591;28;20049;-70
2021/10/24 06:35:07;;;;;;;4.10;1.48;;;;;;;6.79;61.65;98692.94;5039133;28;20060;-70
2021/10/24 06:37:56;;;;;;;5.70;1.70;;;;;;;6.72;61.59;98681.56;5036154;28;20037;-71
2021/10/24 06:40:22;;;;;;;7.45;1.60;;;;;;;6.77;61.68;98698.66;5031646;28;20073;-71
2021/10/24 06:42:55;;;;;;;7.38;1.90;;;;;;;6.86;61.56;98698.09;5036728;28;20119;-71
2021/10/24 06:45:46;;;;;;;9.73;1.85;;;;;;;6.91;61.43;98696.19;5047196;28;20079;-73
2021/10/24 06:48:32;;;;;;;8.77;2.10;;;;;;;6.84;61.54;98701.06;5047543;28;20091;-72
2021/10/24 06:51:16;;;;;;;9.65;2.78;;;;;;;6.80;61.76;98703.56;5029937;28;20054;-72
2021/10/24 06:54:15;;;;;;;11.27;2.75;;;;;;;6.81;61.60;98707.06;5046804;28;20061;-71
2021/10/24 06:57:10;;;;;;;15.90;4.55;;;;;;;6.85;61.58;98720.94;5033196;28;20056;-73
2021/10/24 07:00:12;;;;;;;15.13;5.40;;;;;;;6.85;61.68;98718.22;5039553;28;20041;-74
2021/10/24 07:02:58;;;;;;;11.73;3.58;;;;;;;6.91;61.60;98722.53;5049693;28;20037;-73
2021/10/24 07:05:42;;;;;;;8.80;2.75;;;;;;;6.95;61.58;98729.06;5050037;28;20041;-76
2021/10/24 07:08:14;;;;;;;11.23;2.70;;;;;;;6.98;61.43;98730.38;5051915;28;20056;-77
2021/10/24 07:10:41;;;;;;;20.92;3.00;;;;;;;6.99;61.46;98729.28;5033357;28;20041;-77
2021/10/24 07:13:07;;;;;;;12.88;2.63;;;;;;;6.95;61.76;98731.78;5049036;28;20063;-76
2021/10/24 07:15:33;;;;;;;8.95;2.40;;;;;;;6.98;61.42;98733.94;5051262;28;20060;-76
2021/10/24 07:17:59;;;;;;;12.45;2.45;;;;;;;6.98;61.49;98733.94;5050988;28;20061;-76
2021/10/24 07:20:27;;;;;;;9.57;2.28;;;;;;;7.00;61.42;98742.63;5030024;28;20033;-77
2021/10/24 07:22:56;;;;;;;15.73;2.00;;;;;;;7.09;61.25;98738.22;5050904;28;20076;-75
2021/10/24 07:25:25;;;;;;;9.07;1.83;;;;;;;7.14;60.60;98736.59;5050947;28;20091;-76
2021/10/24 07:27:51;;;;;;;6.22;1.40;;;;;;;7.09;60.89;98745.56;5034677;28;20111;-75
2021/10/24 07:30:18;;;;;;;10.20;3.20;;;;;;;7.05;60.88;98749.94;5049611;28;20369;-76
2021/10/24 07:32:49;;;;;;;9.60;2.58;;;;;;;7.04;60.99;98753.75;5015160;28;20119;-75
2021/10/24 07:35:42;;;;;;;11.10;2.10;;;;;;;7.06;60.79;98751.56;5047521;28;20045;-75
2021/10/24 07:38:12;;;;;;;12.90;2.53;;;;;;;7.06;61.01;98740.69;5056391;28;20124;-76
2021/10/24 07:40:41;;;;;;;10.20;1.90;;;;;;;7.18;60.60;98760.22;5059073;28;20124;-75
2021/10/24 07:43:13;;;;;;;10.85;2.28;;;;;;;7.16;60.89;98764.31;5033734;28;20136;-76
2021/10/24 07:45:39;;;;;;;11.70;2.20;;;;;;;7.06;61.44;98773.31;5050460;28;20531;-77
2021/10/24 07:48:06;;;;;;;15.82;1.88;;;;;;;7.09;61.50;98761.88;5050344;28;20139;-76
2021/10/24 07:50:35;;;;;;;18.08;2.20;;;;;;;7.11;61.35;98772.50;5040852;28;20048;-76
2021/10/24 07:53:02;;;;;;;18.98;3.00;;;;;;;7.16;61.46;98784.13;5050614;28;20049;-76
2021/10/24 07:55:37;;;;;;;15.02;2.42;;;;;;;7.26;61.45;98771.63;5052204;28;20268;-76
2021/10/24 07:58:06;;;;;;;12.63;2.60;;;;;;;7.22;61.42;98766.72;5050407;28;20037;-70
2021/10/24 08:00:32;;;;;;;8.55;1.98;;;;;;;7.24;61.62;98785.47;5047349;28;20400;-70
2021/10/24 08:02:59;;;;;;;6.55;1.70;;;;;;;7.29;61.43;98784.66;5051362;28;20630;-70
2021/10/24 08:05:25;;;;;;;8.23;2.30;;;;;;;7.16;61.57;98784.13;5051061;28;20099;-70
2021/10/24 08:07:53;;;;;;;9.93;3.15;;;;;;;7.20;61.49;98790.66;5050293;28;20056;-71
2021/10/24 08:10:19;;;;;;;12.85;2.40;;;;;;;7.20;61.40;98787.13;5033270;28;20080;-71
2021/10/24 08:12:46;;;;;;;9.68;2.40;;;;;;;7.28;61.03;98792.00;5051473;28;20098;-70
2021/10/24 08:15:14;;;;;;;10.20;1.80;;;;;;;7.30;61.11;98802.59;5032550;28;20552;-70
2021/10/24 08:17:42;;;;;;;13.80;2.65;;;;;;;7.34;61.01;98814.56;5049368;28;20041;-69
2021/10/24 08:20:28;;;;;;;12.10;2.47;;;;;;;7.39;60.68;98784.63;5051018;28;20516;-70
2021/10/24 08:22:54;;;;;;;10.95;2.75;;;;;;;7.48;60.45;98793.81;5047517;28;20045;-76
2021/10/24 08:25:20;;;;;;;7.93;2.50;;;;;;;7.56;60.29;98816.88;5050342;28;20505;-69
2021/10/24 08:27:47;;;;;;;12.48;4.40;;;;;;;7.36;60.59;98821.31;5042023;28;20532;-71
2021/10/24 08:30:36;;;;;;;19.93;3.20;;;;;;;7.34;61.01;98817.28;5042611;28;20045;-71
2021/10/24 08:33:17;;;;;;;14.32;2.50;;;;;;;7.45;60.48;98818.03;5047863;28;20135;-71
2021/10/24 08:35:44;;;;;;;13.80;4.40;;;;;;;7.43;60.47;98810.16;5062939;28;20045;-70
2021/10/24 08:38:10;;;;;;;14.48;5.32;;;;;;;7.41;60.14;98820.50;5049843;28;20044;-72
2021/10/24 08:40:39;;;;;;;13.63;4.95;;;;;;;7.34;60.35;98820.00;5052741;28;20075;-69
2021/10/24 08:43:14;;;;;;;11.73;4.82;;;;;;;7.37;60.42;98816.72;5051643;28;20064;-70
2021/10/24 08:45:42;;;;;;;20.30;6.00;;;;;;;7.40;60.22;98826.22;5049313;28;20136;-69
2021/10/24 08:48:08;;;;;;;16.08;6.38;;;;;;;7.38;60.51;98831.94;5046398;28;20497;-78
2021/10/24 08:50:34;;;;;;;19.73;8.40;;;;;;;7.46;60.80;98833.28;5050399;28;20052;-69
2021/10/24 08:53:04;;;;;;;21.60;9.45;;;;;;;7.50;60.86;98837.06;5050148;28;20045;-70
2021/10/24 08:55:31;;;;;;;27.85;12.48;;;;;;;7.47;60.94;98834.91;5050781;28;20051;-70
2021/10/24 08:57:57;;;;;;;42.20;16.55;;;;;;;7.47;61.03;98838.41;5052274;28;20048;-70
2021/10/24 09:00:23;;;;;;;35.45;15.93;;;;;;;7.44;61.30;98859.94;5055315;28;20509;-69
2021/10/24 09:03:03;;;;;;;26.67;10.75;;;;;;;7.41;61.22;98864.03;5052635;28;20586;-69
2021/10/24 09:05:33;;;;;;;31.70;11.40;;;;;;;7.48;60.97;98861.81;5061274;28;20509;-71
2021/10/24 09:08:00;;;;;;;24.33;9.52;;;;;;;7.28;61.18;98867.31;5054464;28;20075;-70
2021/10/24 09:10:39;;;;;;;24.00;8.20;;;;;;;7.16;60.54;98843.16;5052028;28;20056;-69
2021/10/24 09:13:06;;;;;;;19.80;7.97;;;;;;;7.37;59.96;98861.03;5050573;28;20102;-70
2021/10/24 09:15:45;;;;;;;;;;;;;;;7.44;59.34;98866.19;5018128;28;20048;-69
2021/10/24 09:18:14;;;;;;;21.85;9.10;;;;;;;7.42;59.39;98873.00;5046205;28;19929;-70
2021/10/24 09:20:42;;;;;;;16.67;7.75;;;;;;;7.34;59.30;98868.94;5052203;28;20055;-70
2021/10/24 09:23:10;;;;;;;15.93;8.27;;;;;;;7.27;59.16;98892.88;5050251;28;20543;-70
2021/10/24 09:25:48;;;;;;;16.05;9.52;;;;;;;7.19;59.46;98889.63;5049509;28;20136;-71
2021/10/24 09:28:17;;;;;;;25.85;8.88;;;;;;;7.08;59.22;98866.28;5050534;28;20095;-70
2021/10/24 09:30:43;;;;;;;16.33;8.75;;;;;;;7.23;59.26;98896.16;5051923;28;20045;-79
2021/10/24 09:33:15;;;;;;;12.60;6.38;;;;;;;7.13;58.74;98885.28;5047824;28;20144;-79
2021/10/24 09:35:44;;;;;;;17.90;5.57;;;;;;;7.09;59.09;98895.09;5049468;28;20385;-78
2021/10/24 09:38:13;;;;;;;16.33;7.13;;;;;;;7.27;58.93;98915.47;5048105;28;20041;-78
2021/10/24 09:41:04;;;;;;;13.18;5.60;;;;;;;7.38;58.49;98914.31;5052353;28;20132;-78
2021/10/24 09:43:37;;;;;;;11.25;3.83;;;;;;;7.27;58.11;98912.75;5048304;28;20051;-78
2021/10/24 09:46:11;;;;;;;;;;;;;;;7.20;58.12;98901.31;5048859;28;20167;-78
2021/10/24 09:48:44;;;;;;;8.48;3.50;;;;;;;7.11;57.75;98911.94;5032066;28;19931;-78
2021/10/24 09:51:16;;;;;;;8.13;2.83;;;;;;;7.22;57.51;98946.19;5048632;28;20056;-76
2021/10/24 09:53:45;;;;;;;9.05;3.35;;;;;;;7.28;57.05;98949.72;5053671;28;20048;-75
2021/10/24 09:56:17;;;;;;;13.40;5.80;;;;;;;7.03;57.50;98910.59;5059650;28;20040;-76
2021/10/24 09:58:46;;;;;;;11.57;4.40;;;;;;;7.22;57.58;98946.19;5053186;28;20120;-75
2021/10/24 10:01:17;;;;;;;17.63;4.65;;;;;;;7.24;57.40;98930.41;5048414;28;20103;-75
2021/10/24 10:04:32;;;;;;;9.30;3.60;;;;;;;6.94;56.86;98912.19;5010652;28;20058;-75
2021/10/24 10:07:22;;;;;;;11.48;3.92;;;;;;;6.86;56.67;98923.63;5044722;28;20480;-73
2021/10/24 10:09:50;;;;;;;10.73;3.97;;;;;;;7.12;56.54;98943.47;5025491;28;20527;-75
2021/10/24 10:12:20;;;;;;;13.65;4.38;;;;;;;7.21;56.30;98957.31;5048022;28;20333;-72
2021/10/24 10:14:48;;;;;;;12.90;4.00;;;;;;;7.14;56.16;98959.50;5027773;28;20528;-71
2021/10/24 10:17:19;;;;;;;;;;;;;;;7.13;55.84;98974.19;5048140;28;20044;-71
2021/10/24 10:19:47;;;;;;;10.77;3.05;;;;;;;7.21;55.82;98979.06;5053538;28;19924;-70
2021/10/24 10:22:27;;;;;;;8.90;3.08;;;;;;;7.12;55.59;98997.84;5049834;28;20045;-70
2021/10/24 10:24:58;;;;;;;5.47;2.03;;;;;;;7.19;55.43;98987.53;5040610;28;20056;-75
2021/10/24 10:27:42;;;;;;;8.73;2.90;;;;;;;7.05;55.61;98992.66;5029945;28;20049;-73
2021/10/24 10:30:11;;;;;;;5.30;1.80;;;;;;;7.16;55.51;99003.56;5045015;28;20194;-72
2021/10/24 10:32:39;;;;;;;9.32;2.53;;;;;;;7.15;55.98;99001.94;5048832;28;20043;-71
2021/10/24 10:35:07;;;;;;;17.50;2.47;;;;;;;7.15;56.17;99021.75;5049481;28;20059;-72
2021/10/24 10:37:49;;;;;;;9.65;2.65;;;;;;;6.95;56.99;99000.84;5049930;28;20041;-73
2021/10/24 10:40:17;;;;;;;9.23;3.03;;;;;;;6.93;57.42;99027.44;5049311;28;20053;-72
2021/10/24 10:42:57;;;;;;;12.45;2.70;;;;;;;6.85;58.08;99034.22;5048760;28;20065;-73
2021/10/24 10:45:48;;;;;;;7.20;2.42;;;;;;;6.74;58.42;99038.03;5014436;28;20042;-71
2021/10/24 10:48:46;;;;;;;14.68;4.40;;;;;;;6.70;58.79;99047.75;5051806;28;20053;-72
2021/10/24 10:51:19;;;;;;;15.57;5.15;;;;;;;6.59;59.27;99053.19;5053325;28;20048;-72
2021/10/24 10:53:55;;;;;;;19.27;4.60;;;;;;;6.63;59.00;99048.00;5053965;28;20056;-73
2021/10/24 10:56:24;;;;;;;18.00;4.00;;;;;;;6.65;58.91;99045.88;5053939;28;20076;-73
2021/10/24 10:58:51;;;;;;;10.25;3.20;;;;;;;6.63;58.54;99045.31;5051612;28;20098;-73
2021/10/24 11:01:24;;;;;;;11.13;3.72;;;;;;;6.63;58.73;99043.41;5051666;28;20493;-74
2021/10/24 11:03:52;;;;;;;16.15;3.35;;;;;;;6.63;58.64;99056.16;5051486;28;20412;-72
2021/10/24 11:06:51;;;;;;;9.63;3.17;;;;;;;6.64;58.47;99061.34;5052560;28;20109;-68
2021/10/24 11:09:41;;;;;;;18.50;3.13;;;;;;;6.59;58.20;99068.66;5050443;28;20049;-70
2021/10/24 11:12:09;;;;;;;10.52;3.22;;;;;;;6.60;57.82;99068.41;5051417;28;20053;-70
2021/10/24 11:14:46;;;;;;;8.45;2.80;;;;;;;6.67;57.48;99076.31;5035634;28;20040;-70
2021/10/24 11:17:33;;;;;;;10.80;3.30;;;;;;;6.67;57.35;99065.44;5054022;28;20055;-70
2021/10/24 11:20:14;;;;;;;;;;;;;;;6.79;57.28;99076.06;5034564;28;20056;-73
2021/10/24 11:22:44;;;;;;;9.45;3.30;;;;;;;6.74;56.74;99060.56;5053211;28;19932;-74
2021/10/24 11:25:23;;;;;;;10.85;3.42;;;;;;;6.83;56.28;99084.50;5053626;28;20173;-74
2021/10/24 11:27:49;;;;;;;10.68;3.63;;;;;;;6.67;56.45;99074.38;5053940;28;20060;-73
2021/10/24 11:30:17;;;;;;;10.93;2.80;;;;;;;6.83;55.99;99092.66;5055503;28;20081;-73
2021/10/24 11:32:44;;;;;;;;;;;;;;;6.76;55.93;99091.00;5052963;28;20423;-74
2021/10/24 11:35:17;;;;;;;10.07;2.25;;;;;;;6.71;55.86;99095.59;5053654;28;19928;-76
2021/10/24 11:37:46;;;;;;;9.57;2.95;;;;;;;6.89;55.59;99100.56;5054022;28;20085;-76
2021/10/24 11:40:17;;;;;;;6.93;2.35;;;;;;;6.86;55.07;99097.56;5053323;28;20099;-77
2021/10/24 11:42:55;;;;;;;7.85;2.35;;;;;;;6.79;55.85;99116.81;5052861;28;20049;-73
2021/10/24 11:45:22;;;;;;;7.15;2.35;;;;;;;6.57;56.50;99120.56;5050612;28;20068;-75
2021/10/24 11:47:59;;;;;;;9.55;1.90;;;;;;;6.62;56.54;99133.31;5050909;28;20145;-74
2021/10/24 11:51:00;;;;;;;10.20;2.22;;;;;;;6.42;57.23;99128.63;5046007;28;20497;-75
2021/10/24 11:53:32;;;;;;;7.78;2.25;;;;;;;6.33;57.26;99110.09;5029833;28;20033;-76
2021/10/24 11:56:05;;;;;;;8.38;2.90;;;;;;;5.96;57.01;99071.03;5051837;28;20049;-76
2021/10/24 11:58:40;;;;;;;8.88;2.88;;;;;;;5.88;56.96;99057.97;5032816;28;20497;-74